Lea County Regional Airport Hobbs US
ICAO: KHOB
IATA: HOB
Category: Medium
Scheduled Services: No

Elevation: 3661 ft
TransAlt. 18000 ft.

Airport Communications:
ATIS:119.75
FORT WORTH CNTR:133.1
CTAF:120.65
GND:121.9
ALBUQUERQUE RDO:122.2
HOBBS TWR:120.65
UNICOM:122.95

KHOB Zoom In..

Runways:

(A) RW 03 length 7398 ft width 150 ft
ILS 108.50 / hdg 35

(B) RW 12 length 6002 ft width 150 ft
---- / hdg 125

(C) RW 17 length 4998 ft width 100 ft
---- / hdg 170

(D) RW 21 length 7398 ft width 150 ft
---- / hdg 215

(E) RW 30 length 6002 ft width 150 ft
---- / hdg 305

(F) RW 35 length 4998 ft width 100 ft
---- / hdg 350

Location; KHOB
Day. 24 / Time. 07.35 Zulu
* Altimeter: 30.10
* Temperature: 16° c. 60.8°f.
* Wind from: 010° Speed 03 kn.
Dewpoint: 14° c.
Visibility: 10 Statute Miles.
Clouds: Few 3300 ft.
Clouds: Few 3900 ft.

KHOB 240735Z AUTO 01003KT 10SM FEW033 FEW039 16/14 A3010 RMK AO2


Wind From 010°
Speed 03 kn.

 
 
jpsmedia.com for Web Design SOUNDCLOUD worldairports.se 2018   terms of use